sensor_id;sensor_type;location;lat;lon;timestamp;temperature;humidity
32293;DHT22;43233;48.608;8.838;2022-12-22T00:02:05;8.70;83.60
32293;DHT22;43233;48.608;8.838;2022-12-22T00:04:52;8.70;83.40
32293;DHT22;43233;48.608;8.838;2022-12-22T00:07:36;8.80;83.40
32293;DHT22;43233;48.608;8.838;2022-12-22T00:10:21;8.80;83.40
32293;DHT22;43233;48.608;8.838;2022-12-22T00:13:09;8.80;83.20
32293;DHT22;43233;48.608;8.838;2022-12-22T00:15:54;8.90;83.00
32293;DHT22;43233;48.608;8.838;2022-12-22T00:18:38;8.90;83.10
32293;DHT22;43233;48.608;8.838;2022-12-22T00:21:22;8.90;82.80
32293;DHT22;43233;48.608;8.838;2022-12-22T00:24:07;8.90;83.00
32293;DHT22;43233;48.608;8.838;2022-12-22T00:26:51;8.90;83.10
32293;DHT22;43233;48.608;8.838;2022-12-22T00:29:37;8.90;84.30
32293;DHT22;43233;48.608;8.838;2022-12-22T00:32:22;8.80;85.10
32293;DHT22;43233;48.608;8.838;2022-12-22T00:35:13;8.70;86.00
32293;DHT22;43233;48.608;8.838;2022-12-22T00:37:58;8.70;86.80
32293;DHT22;43233;48.608;8.838;2022-12-22T00:40:43;8.70;87.10
32293;DHT22;43233;48.608;8.838;2022-12-22T00:43:27;8.60;87.30
32293;DHT22;43233;48.608;8.838;2022-12-22T00:46:14;8.60;87.90
32293;DHT22;43233;48.608;8.838;2022-12-22T00:48:59;8.60;88.80
32293;DHT22;43233;48.608;8.838;2022-12-22T00:51:44;8.50;89.00
32293;DHT22;43233;48.608;8.838;2022-12-22T00:54:28;8.60;89.10
32293;DHT22;43233;48.608;8.838;2022-12-22T00:57:16;8.60;89.20
32293;DHT22;43233;48.608;8.838;2022-12-22T01:00:02;8.60;89.20
32293;DHT22;43233;48.608;8.838;2022-12-22T01:02:46;8.60;89.30
32293;DHT22;43233;48.608;8.838;2022-12-22T01:05:30;8.60;89.30
32293;DHT22;43233;48.608;8.838;2022-12-22T01:08:15;8.50;90.20
32293;DHT22;43233;48.608;8.838;2022-12-22T01:10:59;8.60;89.60
32293;DHT22;43233;48.608;8.838;2022-12-22T01:13:44;8.60;89.80
32293;DHT22;43233;48.608;8.838;2022-12-22T01:16:28;8.50;91.70
32293;DHT22;43233;48.608;8.838;2022-12-22T01:19:12;8.50;92.40
32293;DHT22;43233;48.608;8.838;2022-12-22T01:21:57;8.50;92.70
32293;DHT22;43233;48.608;8.838;2022-12-22T01:24:41;8.50;93.20
32293;DHT22;43233;48.608;8.838;2022-12-22T01:27:26;8.50;92.60
32293;DHT22;43233;48.608;8.838;2022-12-22T01:30:10;8.50;92.60
32293;DHT22;43233;48.608;8.838;2022-12-22T01:32:54;8.50;92.50
32293;DHT22;43233;48.608;8.838;2022-12-22T01:35:38;8.60;91.80
32293;DHT22;43233;48.608;8.838;2022-12-22T01:38:22;8.60;91.30
32293;DHT22;43233;48.608;8.838;2022-12-22T01:41:13;8.70;90.70
32293;DHT22;43233;48.608;8.838;2022-12-22T01:43:58;8.60;90.20
32293;DHT22;43233;48.608;8.838;2022-12-22T01:46:44;8.60;90.00
32293;DHT22;43233;48.608;8.838;2022-12-22T01:49:35;8.50;90.10
32293;DHT22;43233;48.608;8.838;2022-12-22T01:52:24;8.50;90.30
32293;DHT22;43233;48.608;8.838;2022-12-22T01:55:12;8.50;90.10
32293;DHT22;43233;48.608;8.838;2022-12-22T01:57:57;8.50;90.30
32293;DHT22;43233;48.608;8.838;2022-12-22T02:00:44;8.50;89.50
32293;DHT22;43233;48.608;8.838;2022-12-22T02:03:28;8.50;89.60
32293;DHT22;43233;48.608;8.838;2022-12-22T02:06:32;8.50;90.60
32293;DHT22;43233;48.608;8.838;2022-12-22T02:10:06;8.40;92.00
32293;DHT22;43233;48.608;8.838;2022-12-22T02:12:41;8.40;93.00
32293;DHT22;43233;48.608;8.838;2022-12-22T02:15:40;8.40;93.40
32293;DHT22;43233;48.608;8.838;2022-12-22T02:18:33;8.50;93.20
32293;DHT22;43233;48.608;8.838;2022-12-22T02:21:21;8.50;92.80
32293;DHT22;43233;48.608;8.838;2022-12-22T02:24:34;8.40;93.20
32293;DHT22;43233;48.608;8.838;2022-12-22T02:27:22;8.40;94.20
32293;DHT22;43233;48.608;8.838;2022-12-22T02:30:08;8.40;94.50
32293;DHT22;43233;48.608;8.838;2022-12-22T02:32:53;8.40;95.00
32293;DHT22;43233;48.608;8.838;2022-12-22T02:36:07;8.40;94.20
32293;DHT22;43233;48.608;8.838;2022-12-22T02:39:26;8.40;95.10
32293;DHT22;43233;48.608;8.838;2022-12-22T02:48:00;8.40;95.20
32293;DHT22;43233;48.608;8.838;2022-12-22T02:50:52;8.40;95.20
32293;DHT22;43233;48.608;8.838;2022-12-22T02:53:38;8.30;95.80
32293;DHT22;43233;48.608;8.838;2022-12-22T02:56:23;8.40;95.70
32293;DHT22;43233;48.608;8.838;2022-12-22T02:59:08;8.40;95.70
32293;DHT22;43233;48.608;8.838;2022-12-22T03:01:52;8.50;95.40
32293;DHT22;43233;48.608;8.838;2022-12-22T03:04:36;8.50;95.90
32293;DHT22;43233;48.608;8.838;2022-12-22T03:07:20;8.60;94.70
32293;DHT22;43233;48.608;8.838;2022-12-22T03:10:05;8.60;94.50
32293;DHT22;43233;48.608;8.838;2022-12-22T03:12:50;8.70;94.20
32293;DHT22;43233;48.608;8.838;2022-12-22T03:15:34;8.70;93.50
32293;DHT22;43233;48.608;8.838;2022-12-22T03:18:19;8.70;93.50
32293;DHT22;43233;48.608;8.838;2022-12-22T03:21:03;8.80;93.00
32293;DHT22;43233;48.608;8.838;2022-12-22T03:23:47;8.90;92.50
32293;DHT22;43233;48.608;8.838;2022-12-22T03:26:31;9.00;91.10
32293;DHT22;43233;48.608;8.838;2022-12-22T03:28:58;8.90;91.40
32293;DHT22;43233;48.608;8.838;2022-12-22T03:31:23;8.90;91.30
32293;DHT22;43233;48.608;8.838;2022-12-22T03:33:49;9.00;91.20
32293;DHT22;43233;48.608;8.838;2022-12-22T03:36:14;9.00;91.10
32293;DHT22;43233;48.608;8.838;2022-12-22T03:38:40;9.00;91.20
32293;DHT22;43233;48.608;8.838;2022-12-22T03:41:06;9.00;91.40
32293;DHT22;43233;48.608;8.838;2022-12-22T03:43:31;9.10;90.80
32293;DHT22;43233;48.608;8.838;2022-12-22T03:46:17;9.10;90.80
32293;DHT22;43233;48.608;8.838;2022-12-22T03:49:00;9.20;90.00
32293;DHT22;43233;48.608;8.838;2022-12-22T03:54:05;9.20;89.60
32293;DHT22;43233;48.608;8.838;2022-12-22T03:56:31;9.30;89.50
32293;DHT22;43233;48.608;8.838;2022-12-22T03:58:56;9.30;88.80
32293;DHT22;43233;48.608;8.838;2022-12-22T04:01:23;9.30;88.60
32293;DHT22;43233;48.608;8.838;2022-12-22T04:03:49;9.30;88.50
32293;DHT22;43233;48.608;8.838;2022-12-22T04:06:15;9.30;88.60
32293;DHT22;43233;48.608;8.838;2022-12-22T04:08:41;9.20;88.40
32293;DHT22;43233;48.608;8.838;2022-12-22T04:11:14;9.30;88.00
32293;DHT22;43233;48.608;8.838;2022-12-22T04:13:58;9.20;88.30
32293;DHT22;43233;48.608;8.838;2022-12-22T04:16:24;9.20;88.60
32293;DHT22;43233;48.608;8.838;2022-12-22T04:18:50;9.20;88.70
32293;DHT22;43233;48.608;8.838;2022-12-22T04:21:16;9.30;88.40
32293;DHT22;43233;48.608;8.838;2022-12-22T04:23:41;9.20;87.80
32293;DHT22;43233;48.608;8.838;2022-12-22T04:26:07;9.20;87.30
32293;DHT22;43233;48.608;8.838;2022-12-22T04:28:33;9.20;87.70
32293;DHT22;43233;48.608;8.838;2022-12-22T04:30:58;9.20;88.30
32293;DHT22;43233;48.608;8.838;2022-12-22T04:33:24;9.10;88.40
32293;DHT22;43233;48.608;8.838;2022-12-22T04:35:49;9.00;89.30
32293;DHT22;43233;48.608;8.838;2022-12-22T04:38:15;9.00;89.20
32293;DHT22;43233;48.608;8.838;2022-12-22T04:40:41;9.00;90.10
32293;DHT22;43233;48.608;8.838;2022-12-22T04:43:06;9.00;89.60
32293;DHT22;43233;48.608;8.838;2022-12-22T04:45:32;8.90;90.00
32293;DHT22;43233;48.608;8.838;2022-12-22T04:47:57;9.00;89.70
32293;DHT22;43233;48.608;8.838;2022-12-22T04:50:23;9.00;89.20
32293;DHT22;43233;48.608;8.838;2022-12-22T04:52:49;9.00;89.60
32293;DHT22;43233;48.608;8.838;2022-12-22T04:55:14;9.00;89.50
32293;DHT22;43233;48.608;8.838;2022-12-22T04:57:40;9.00;89.40
32293;DHT22;43233;48.608;8.838;2022-12-22T05:00:06;8.90;90.50
32293;DHT22;43233;48.608;8.838;2022-12-22T05:02:32;8.90;90.80
32293;DHT22;43233;48.608;8.838;2022-12-22T05:04:58;8.90;91.40
32293;DHT22;43233;48.608;8.838;2022-12-22T05:07:23;8.80;92.50
32293;DHT22;43233;48.608;8.838;2022-12-22T05:09:49;8.70;93.30
32293;DHT22;43233;48.608;8.838;2022-12-22T05:12:14;8.70;94.00
32293;DHT22;43233;48.608;8.838;2022-12-22T05:14:58;8.80;94.20
32293;DHT22;43233;48.608;8.838;2022-12-22T05:17:24;8.90;94.00
32293;DHT22;43233;48.608;8.838;2022-12-22T05:19:50;9.00;93.50
32293;DHT22;43233;48.608;8.838;2022-12-22T05:22:15;9.00;93.40
32293;DHT22;43233;48.608;8.838;2022-12-22T05:24:41;9.00;94.30
32293;DHT22;43233;48.608;8.838;2022-12-22T05:27:06;9.10;93.40
32293;DHT22;43233;48.608;8.838;2022-12-22T05:29:32;9.10;92.40
32293;DHT22;43233;48.608;8.838;2022-12-22T05:31:58;9.20;91.80
32293;DHT22;43233;48.608;8.838;2022-12-22T05:34:23;9.20;91.20
32293;DHT22;43233;48.608;8.838;2022-12-22T05:36:49;9.20;90.50
32293;DHT22;43233;48.608;8.838;2022-12-22T05:39:14;9.30;89.20
32293;DHT22;43233;48.608;8.838;2022-12-22T05:41:40;9.30;88.50
32293;DHT22;43233;48.608;8.838;2022-12-22T05:44:06;9.40;87.60
32293;DHT22;43233;48.608;8.838;2022-12-22T05:46:31;9.40;87.10
32293;DHT22;43233;48.608;8.838;2022-12-22T05:48:57;9.40;87.00
32293;DHT22;43233;48.608;8.838;2022-12-22T05:51:22;9.40;85.90
32293;DHT22;43233;48.608;8.838;2022-12-22T05:53:48;9.50;84.30
32293;DHT22;43233;48.608;8.838;2022-12-22T05:56:14;9.50;84.60
32293;DHT22;43233;48.608;8.838;2022-12-22T05:58:39;9.50;84.60
32293;DHT22;43233;48.608;8.838;2022-12-22T06:01:05;9.50;84.30
32293;DHT22;43233;48.608;8.838;2022-12-22T06:03:31;9.60;83.40
32293;DHT22;43233;48.608;8.838;2022-12-22T06:05:57;9.60;82.30
32293;DHT22;43233;48.608;8.838;2022-12-22T06:08:23;9.60;82.20
32293;DHT22;43233;48.608;8.838;2022-12-22T06:10:50;9.60;82.20
32293;DHT22;43233;48.608;8.838;2022-12-22T06:13:17;9.60;82.00
32293;DHT22;43233;48.608;8.838;2022-12-22T06:15:43;9.60;81.40
32293;DHT22;43233;48.608;8.838;2022-12-22T06:18:08;9.60;81.30
32293;DHT22;43233;48.608;8.838;2022-12-22T06:20:34;9.50;81.70
32293;DHT22;43233;48.608;8.838;2022-12-22T06:23:00;9.50;81.70
32293;DHT22;43233;48.608;8.838;2022-12-22T06:25:25;9.50;81.60
32293;DHT22;43233;48.608;8.838;2022-12-22T06:27:51;9.50;81.30
32293;DHT22;43233;48.608;8.838;2022-12-22T06:30:16;9.60;81.10
32293;DHT22;43233;48.608;8.838;2022-12-22T06:32:42;9.50;81.50
32293;DHT22;43233;48.608;8.838;2022-12-22T06:35:08;9.50;81.20
32293;DHT22;43233;48.608;8.838;2022-12-22T06:37:34;9.60;79.90
32293;DHT22;43233;48.608;8.838;2022-12-22T06:40:00;9.60;79.90
32293;DHT22;43233;48.608;8.838;2022-12-22T06:42:26;9.60;79.90
32293;DHT22;43233;48.608;8.838;2022-12-22T06:45:10;9.60;79.60
32293;DHT22;43233;48.608;8.838;2022-12-22T06:47:36;9.50;80.30
32293;DHT22;43233;48.608;8.838;2022-12-22T06:50:02;9.60;79.80
32293;DHT22;43233;48.608;8.838;2022-12-22T06:52:27;9.60;79.60
32293;DHT22;43233;48.608;8.838;2022-12-22T06:54:53;9.60;79.20
32293;DHT22;43233;48.608;8.838;2022-12-22T06:57:19;9.60;79.00
32293;DHT22;43233;48.608;8.838;2022-12-22T06:59:44;9.60;78.90
32293;DHT22;43233;48.608;8.838;2022-12-22T07:02:10;9.60;78.40
32293;DHT22;43233;48.608;8.838;2022-12-22T07:04:36;9.50;78.40
32293;DHT22;43233;48.608;8.838;2022-12-22T07:07:02;9.40;78.20
32293;DHT22;43233;48.608;8.838;2022-12-22T07:09:28;9.50;78.70
32293;DHT22;43233;48.608;8.838;2022-12-22T07:11:54;9.30;78.20
32293;DHT22;43233;48.608;8.838;2022-12-22T07:14:19;9.30;78.50
32293;DHT22;43233;48.608;8.838;2022-12-22T07:16:46;9.30;78.80
32293;DHT22;43233;48.608;8.838;2022-12-22T07:19:12;9.40;78.00
32293;DHT22;43233;48.608;8.838;2022-12-22T07:21:38;9.50;78.20
32293;DHT22;43233;48.608;8.838;2022-12-22T07:24:03;9.40;78.50
32293;DHT22;43233;48.608;8.838;2022-12-22T07:26:29;9.40;78.80
32293;DHT22;43233;48.608;8.838;2022-12-22T07:28:55;9.30;79.20
32293;DHT22;43233;48.608;8.838;2022-12-22T07:31:27;9.30;79.90
32293;DHT22;43233;48.608;8.838;2022-12-22T07:33:52;9.30;80.60
32293;DHT22;43233;48.608;8.838;2022-12-22T07:36:19;9.20;81.20
32293;DHT22;43233;48.608;8.838;2022-12-22T07:38:47;9.10;82.70
32293;DHT22;43233;48.608;8.838;2022-12-22T07:41:15;9.10;83.40
32293;DHT22;43233;48.608;8.838;2022-12-22T07:44:00;9.10;84.40
32293;DHT22;43233;48.608;8.838;2022-12-22T07:46:29;9.10;85.70
32293;DHT22;43233;48.608;8.838;2022-12-22T07:48:55;8.90;86.10
32293;DHT22;43233;48.608;8.838;2022-12-22T07:51:40;8.90;86.70
32293;DHT22;43233;48.608;8.838;2022-12-22T07:54:11;8.90;86.30
32293;DHT22;43233;48.608;8.838;2022-12-22T07:56:38;9.10;85.60
32293;DHT22;43233;48.608;8.838;2022-12-22T07:59:04;9.10;84.70
32293;DHT22;43233;48.608;8.838;2022-12-22T08:01:30;9.00;84.90
32293;DHT22;43233;48.608;8.838;2022-12-22T08:03:56;9.00;84.60
32293;DHT22;43233;48.608;8.838;2022-12-22T08:06:23;9.00;84.90
32293;DHT22;43233;48.608;8.838;2022-12-22T08:08:49;9.00;84.80
32293;DHT22;43233;48.608;8.838;2022-12-22T08:11:15;9.10;84.70
32293;DHT22;43233;48.608;8.838;2022-12-22T08:13:41;9.00;84.30
32293;DHT22;43233;48.608;8.838;2022-12-22T08:16:10;9.10;83.50
32293;DHT22;43233;48.608;8.838;2022-12-22T08:18:37;9.20;82.50
32293;DHT22;43233;48.608;8.838;2022-12-22T08:21:05;9.10;82.70
32293;DHT22;43233;48.608;8.838;2022-12-22T08:23:31;9.20;81.60
32293;DHT22;43233;48.608;8.838;2022-12-22T08:26:14;9.10;81.20
32293;DHT22;43233;48.608;8.838;2022-12-22T08:31:14;9.00;82.00
32293;DHT22;43233;48.608;8.838;2022-12-22T08:33:39;8.90;81.60
32293;DHT22;43233;48.608;8.838;2022-12-22T08:36:06;8.90;80.70
32293;DHT22;43233;48.608;8.838;2022-12-22T08:38:32;8.90;80.90
32293;DHT22;43233;48.608;8.838;2022-12-22T08:40:58;9.00;79.80
32293;DHT22;43233;48.608;8.838;2022-12-22T08:43:25;9.10;78.50
32293;DHT22;43233;48.608;8.838;2022-12-22T08:45:51;9.10;78.60
32293;DHT22;43233;48.608;8.838;2022-12-22T08:48:16;9.10;78.60
32293;DHT22;43233;48.608;8.838;2022-12-22T08:50:42;9.10;78.50
32293;DHT22;43233;48.608;8.838;2022-12-22T08:53:08;9.20;77.80
32293;DHT22;43233;48.608;8.838;2022-12-22T08:55:34;9.10;77.80
32293;DHT22;43233;48.608;8.838;2022-12-22T08:58:00;9.10;79.00
32293;DHT22;43233;48.608;8.838;2022-12-22T09:00:26;9.10;79.20
32293;DHT22;43233;48.608;8.838;2022-12-22T09:02:51;9.20;78.70
32293;DHT22;43233;48.608;8.838;2022-12-22T09:05:18;9.20;78.30
32293;DHT22;43233;48.608;8.838;2022-12-22T09:07:43;9.30;78.70
32293;DHT22;43233;48.608;8.838;2022-12-22T09:10:12;9.20;79.80
32293;DHT22;43233;48.608;8.838;2022-12-22T09:12:38;9.20;80.30
32293;DHT22;43233;48.608;8.838;2022-12-22T09:15:04;9.20;81.00
32293;DHT22;43233;48.608;8.838;2022-12-22T09:17:31;9.10;82.80
32293;DHT22;43233;48.608;8.838;2022-12-22T09:19:57;9.10;83.40
32293;DHT22;43233;48.608;8.838;2022-12-22T09:22:22;9.00;84.90
32293;DHT22;43233;48.608;8.838;2022-12-22T09:24:48;9.00;85.20
32293;DHT22;43233;48.608;8.838;2022-12-22T09:27:14;8.90;86.60
32293;DHT22;43233;48.608;8.838;2022-12-22T09:29:40;8.80;88.00
32293;DHT22;43233;48.608;8.838;2022-12-22T09:32:05;8.70;88.70
32293;DHT22;43233;48.608;8.838;2022-12-22T09:34:31;8.70;88.80
32293;DHT22;43233;48.608;8.838;2022-12-22T09:36:57;8.80;88.90
32293;DHT22;43233;48.608;8.838;2022-12-22T09:39:23;8.70;89.00
32293;DHT22;43233;48.608;8.838;2022-12-22T09:41:51;8.70;90.60
32293;DHT22;43233;48.608;8.838;2022-12-22T09:44:38;8.70;90.90
32293;DHT22;43233;48.608;8.838;2022-12-22T09:49:46;8.70;91.00
32293;DHT22;43233;48.608;8.838;2022-12-22T09:52:41;8.60;91.80
32293;DHT22;43233;48.608;8.838;2022-12-22T09:57:50;8.70;90.20
32293;DHT22;43233;48.608;8.838;2022-12-22T10:00:18;8.60;91.80
32293;DHT22;43233;48.608;8.838;2022-12-22T10:03:12;8.60;92.60
32293;DHT22;43233;48.608;8.838;2022-12-22T10:06:14;8.60;93.40
32293;DHT22;43233;48.608;8.838;2022-12-22T10:08:41;8.50;93.30
32293;DHT22;43233;48.608;8.838;2022-12-22T10:11:15;8.50;93.80
32293;DHT22;43233;48.608;8.838;2022-12-22T10:13:42;8.50;94.10
32293;DHT22;43233;48.608;8.838;2022-12-22T10:16:18;8.50;94.30
32293;DHT22;43233;48.608;8.838;2022-12-22T10:19:19;8.60;94.30
32293;DHT22;43233;48.608;8.838;2022-12-22T10:21:45;8.70;94.60
32293;DHT22;43233;48.608;8.838;2022-12-22T10:24:28;8.70;94.10
32293;DHT22;43233;48.608;8.838;2022-12-22T10:26:56;8.70;93.90
32293;DHT22;43233;48.608;8.838;2022-12-22T10:29:22;8.70;93.90
32293;DHT22;43233;48.608;8.838;2022-12-22T10:31:58;8.70;93.80
32293;DHT22;43233;48.608;8.838;2022-12-22T10:34:24;8.80;92.10
32293;DHT22;43233;48.608;8.838;2022-12-22T10:36:52;8.90;92.40
32293;DHT22;43233;48.608;8.838;2022-12-22T10:39:36;8.90;93.40
32293;DHT22;43233;48.608;8.838;2022-12-22T10:42:09;8.90;93.40
32293;DHT22;43233;48.608;8.838;2022-12-22T10:44:37;8.90;93.30
32293;DHT22;43233;48.608;8.838;2022-12-22T10:47:21;8.90;92.50
32293;DHT22;43233;48.608;8.838;2022-12-22T10:49:55;9.00;92.60
32293;DHT22;43233;48.608;8.838;2022-12-22T10:52:23;9.00;93.70
32293;DHT22;43233;48.608;8.838;2022-12-22T10:54:51;9.00;92.60
32293;DHT22;43233;48.608;8.838;2022-12-22T10:59:50;9.00;92.00
32293;DHT22;43233;48.608;8.838;2022-12-22T11:02:37;9.00;91.80
32293;DHT22;43233;48.608;8.838;2022-12-22T11:05:07;9.00;92.80
32293;DHT22;43233;48.608;8.838;2022-12-22T11:07:36;9.10;94.00
32293;DHT22;43233;48.608;8.838;2022-12-22T11:10:06;9.10;92.20
32293;DHT22;43233;48.608;8.838;2022-12-22T11:12:44;9.20;91.50
32293;DHT22;43233;48.608;8.838;2022-12-22T11:18:18;9.20;90.70
32293;DHT22;43233;48.608;8.838;2022-12-22T11:21:09;9.20;91.40
32293;DHT22;43233;48.608;8.838;2022-12-22T11:23:49;9.30;91.30
32293;DHT22;43233;48.608;8.838;2022-12-22T11:26:36;9.30;89.90
32293;DHT22;43233;48.608;8.838;2022-12-22T11:34:57;9.50;89.30
32293;DHT22;43233;48.608;8.838;2022-12-22T11:37:49;9.50;87.80
32293;DHT22;43233;48.608;8.838;2022-12-22T11:48:38;9.60;88.40
32293;DHT22;43233;48.608;8.838;2022-12-22T12:05:48;10.00;81.80
32293;DHT22;43233;48.608;8.838;2022-12-22T12:13:49;10.30;81.70
32293;DHT22;43233;48.608;8.838;2022-12-22T12:30:18;11.20;76.90
32293;DHT22;43233;48.608;8.838;2022-12-22T12:41:13;10.20;82.70
32293;DHT22;43233;48.608;8.838;2022-12-22T12:43:43;9.90;84.50
32293;DHT22;43233;48.608;8.838;2022-12-22T12:52:05;9.40;88.00
32293;DHT22;43233;48.608;8.838;2022-12-22T13:10:47;9.20;90.90
32293;DHT22;43233;48.608;8.838;2022-12-22T13:28:43;10.00;82.60
32293;DHT22;43233;48.608;8.838;2022-12-22T13:33:41;10.00;81.50
32293;DHT22;43233;48.608;8.838;2022-12-22T13:36:17;10.10;82.20
32293;DHT22;43233;48.608;8.838;2022-12-22T13:38:44;10.40;79.30
32293;DHT22;43233;48.608;8.838;2022-12-22T13:41:20;10.40;78.90
32293;DHT22;43233;48.608;8.838;2022-12-22T13:43:51;10.40;80.10
32293;DHT22;43233;48.608;8.838;2022-12-22T13:46:17;10.50;78.20
32293;DHT22;43233;48.608;8.838;2022-12-22T13:48:46;10.50;77.10
32293;DHT22;43233;48.608;8.838;2022-12-22T13:51:24;10.40;77.10
32293;DHT22;43233;48.608;8.838;2022-12-22T13:53:53;10.50;77.30
32293;DHT22;43233;48.608;8.838;2022-12-22T13:56:23;10.50;77.30
32293;DHT22;43233;48.608;8.838;2022-12-22T13:58:58;10.50;77.10
32293;DHT22;43233;48.608;8.838;2022-12-22T14:01:24;10.30;77.60
32293;DHT22;43233;48.608;8.838;2022-12-22T14:04:03;10.20;77.70
32293;DHT22;43233;48.608;8.838;2022-12-22T14:06:39;10.20;77.80
32293;DHT22;43233;48.608;8.838;2022-12-22T14:09:31;10.00;79.00
32293;DHT22;43233;48.608;8.838;2022-12-22T14:12:11;9.80;80.80
32293;DHT22;43233;48.608;8.838;2022-12-22T14:14:42;9.60;81.40
32293;DHT22;43233;48.608;8.838;2022-12-22T14:19:42;9.60;81.40
32293;DHT22;43233;48.608;8.838;2022-12-22T14:22:18;9.50;80.80
32293;DHT22;43233;48.608;8.838;2022-12-22T14:24:50;9.50;81.90
32293;DHT22;43233;48.608;8.838;2022-12-22T14:27:33;9.50;82.30
32293;DHT22;43233;48.608;8.838;2022-12-22T14:30:02;9.40;82.60
32293;DHT22;43233;48.608;8.838;2022-12-22T14:32:40;9.50;83.10
32293;DHT22;43233;48.608;8.838;2022-12-22T14:37:44;9.40;84.30
32293;DHT22;43233;48.608;8.838;2022-12-22T14:40:32;9.30;85.10
32293;DHT22;43233;48.608;8.838;2022-12-22T14:43:01;9.30;86.00
32293;DHT22;43233;48.608;8.838;2022-12-22T14:45:27;9.30;86.50
32293;DHT22;43233;48.608;8.838;2022-12-22T14:47:54;9.30;86.30
32293;DHT22;43233;48.608;8.838;2022-12-22T14:50:24;9.30;86.20
32293;DHT22;43233;48.608;8.838;2022-12-22T14:52:56;9.20;86.60
32293;DHT22;43233;48.608;8.838;2022-12-22T15:00:39;9.20;86.10
32293;DHT22;43233;48.608;8.838;2022-12-22T15:05:49;9.10;87.50
32293;DHT22;43233;48.608;8.838;2022-12-22T15:08:35;9.10;87.10
32293;DHT22;43233;48.608;8.838;2022-12-22T15:11:01;9.00;88.10
32293;DHT22;43233;48.608;8.838;2022-12-22T15:13:28;8.90;88.80
32293;DHT22;43233;48.608;8.838;2022-12-22T15:15:54;8.90;89.10
32293;DHT22;43233;48.608;8.838;2022-12-22T15:18:24;8.80;89.40
32293;DHT22;43233;48.608;8.838;2022-12-22T15:20:51;8.80;90.20
32293;DHT22;43233;48.608;8.838;2022-12-22T15:23:16;8.70;90.80
32293;DHT22;43233;48.608;8.838;2022-12-22T15:25:42;8.70;91.10
32293;DHT22;43233;48.608;8.838;2022-12-22T15:28:08;8.60;91.00
32293;DHT22;43233;48.608;8.838;2022-12-22T15:30:34;8.60;91.10
32293;DHT22;43233;48.608;8.838;2022-12-22T15:33:00;8.60;90.60
32293;DHT22;43233;48.608;8.838;2022-12-22T15:35:33;8.60;89.70
32293;DHT22;43233;48.608;8.838;2022-12-22T15:38:00;8.60;89.20
32293;DHT22;43233;48.608;8.838;2022-12-22T15:40:27;8.70;88.00
32293;DHT22;43233;48.608;8.838;2022-12-22T15:42:53;8.70;87.10
32293;DHT22;43233;48.608;8.838;2022-12-22T15:45:20;8.70;87.70
32293;DHT22;43233;48.608;8.838;2022-12-22T15:47:53;8.70;87.00
32293;DHT22;43233;48.608;8.838;2022-12-22T15:50:42;8.70;86.40
32293;DHT22;43233;48.608;8.838;2022-12-22T15:53:14;8.60;86.60
32293;DHT22;43233;48.608;8.838;2022-12-22T15:55:43;8.70;86.00
32293;DHT22;43233;48.608;8.838;2022-12-22T15:58:11;8.70;86.80
32293;DHT22;43233;48.608;8.838;2022-12-22T16:00:38;8.60;87.50
32293;DHT22;43233;48.608;8.838;2022-12-22T16:03:04;8.60;87.80
32293;DHT22;43233;48.608;8.838;2022-12-22T16:05:31;8.60;87.90
32293;DHT22;43233;48.608;8.838;2022-12-22T16:07:58;8.50;88.60
32293;DHT22;43233;48.608;8.838;2022-12-22T16:10:30;8.50;89.10
32293;DHT22;43233;48.608;8.838;2022-12-22T16:12:57;8.50;89.20
32293;DHT22;43233;48.608;8.838;2022-12-22T16:15:32;8.40;89.20
32293;DHT22;43233;48.608;8.838;2022-12-22T16:18:01;8.40;89.10
32293;DHT22;43233;48.608;8.838;2022-12-22T16:20:29;8.50;89.00
32293;DHT22;43233;48.608;8.838;2022-12-22T16:22:56;8.50;88.50
32293;DHT22;43233;48.608;8.838;2022-12-22T16:25:43;8.50;88.90
32293;DHT22;43233;48.608;8.838;2022-12-22T16:28:19;8.40;89.40
32293;DHT22;43233;48.608;8.838;2022-12-22T16:30:45;8.40;90.00
32293;DHT22;43233;48.608;8.838;2022-12-22T16:33:12;8.40;90.10
32293;DHT22;43233;48.608;8.838;2022-12-22T16:35:39;8.50;90.30
32293;DHT22;43233;48.608;8.838;2022-12-22T16:38:05;8.50;89.80
32293;DHT22;43233;48.608;8.838;2022-12-22T16:40:32;8.60;89.60
32293;DHT22;43233;48.608;8.838;2022-12-22T16:45:26;8.60;89.30
32293;DHT22;43233;48.608;8.838;2022-12-22T16:47:54;8.60;89.40
32293;DHT22;43233;48.608;8.838;2022-12-22T16:50:25;8.60;89.20
32293;DHT22;43233;48.608;8.838;2022-12-22T16:53:02;8.60;89.50
32293;DHT22;43233;48.608;8.838;2022-12-22T16:55:28;8.60;89.40
32293;DHT22;43233;48.608;8.838;2022-12-22T16:57:55;8.60;89.60
32293;DHT22;43233;48.608;8.838;2022-12-22T17:00:27;8.70;89.30
32293;DHT22;43233;48.608;8.838;2022-12-22T17:03:03;8.80;88.40
32293;DHT22;43233;48.608;8.838;2022-12-22T17:05:37;8.80;87.80
32293;DHT22;43233;48.608;8.838;2022-12-22T17:08:06;8.80;87.50
32293;DHT22;43233;48.608;8.838;2022-12-22T17:10:32;8.90;87.10
32293;DHT22;43233;48.608;8.838;2022-12-22T17:12:59;8.90;87.00
32293;DHT22;43233;48.608;8.838;2022-12-22T17:15:25;8.90;87.10
32293;DHT22;43233;48.608;8.838;2022-12-22T17:17:51;8.90;86.90
32293;DHT22;43233;48.608;8.838;2022-12-22T17:20:19;8.90;86.90
32293;DHT22;43233;48.608;8.838;2022-12-22T17:22:48;8.90;86.90
32293;DHT22;43233;48.608;8.838;2022-12-22T17:25:21;8.90;87.10
32293;DHT22;43233;48.608;8.838;2022-12-22T17:27:48;8.90;87.10
32293;DHT22;43233;48.608;8.838;2022-12-22T17:30:16;8.90;86.30
32293;DHT22;43233;48.608;8.838;2022-12-22T17:32:42;8.90;86.70
32293;DHT22;43233;48.608;8.838;2022-12-22T17:35:14;8.90;86.30
32293;DHT22;43233;48.608;8.838;2022-12-22T17:37:41;8.90;86.70
32293;DHT22;43233;48.608;8.838;2022-12-22T17:42:43;8.80;86.60
32293;DHT22;43233;48.608;8.838;2022-12-22T17:45:13;8.80;86.60
32293;DHT22;43233;48.608;8.838;2022-12-22T17:47:39;8.80;86.60
32293;DHT22;43233;48.608;8.838;2022-12-22T17:50:05;8.80;86.60
32293;DHT22;43233;48.608;8.838;2022-12-22T17:52:32;8.80;86.70
32293;DHT22;43233;48.608;8.838;2022-12-22T17:54:58;8.80;87.10
32293;DHT22;43233;48.608;8.838;2022-12-22T17:57:29;8.90;86.20
32293;DHT22;43233;48.608;8.838;2022-12-22T17:59:55;8.90;86.10
32293;DHT22;43233;48.608;8.838;2022-12-22T18:02:22;8.90;86.30
32293;DHT22;43233;48.608;8.838;2022-12-22T18:04:48;8.80;86.00
32293;DHT22;43233;48.608;8.838;2022-12-22T18:07:19;8.80;86.30
32293;DHT22;43233;48.608;8.838;2022-12-22T18:09:46;8.80;86.50
32293;DHT22;43233;48.608;8.838;2022-12-22T18:12:23;8.80;85.80
32293;DHT22;43233;48.608;8.838;2022-12-22T18:14:51;8.80;85.60
32293;DHT22;43233;48.608;8.838;2022-12-22T18:17:27;8.80;85.50
32293;DHT22;43233;48.608;8.838;2022-12-22T18:19:54;8.80;86.20
32293;DHT22;43233;48.608;8.838;2022-12-22T18:22:25;8.90;86.30
32293;DHT22;43233;48.608;8.838;2022-12-22T18:24:52;8.80;86.80
32293;DHT22;43233;48.608;8.838;2022-12-22T18:27:18;8.80;87.20
32293;DHT22;43233;48.608;8.838;2022-12-22T18:29:44;8.90;87.40
32293;DHT22;43233;48.608;8.838;2022-12-22T18:32:11;8.90;87.50
32293;DHT22;43233;48.608;8.838;2022-12-22T18:34:38;8.90;87.10
32293;DHT22;43233;48.608;8.838;2022-12-22T18:37:05;8.90;87.20